Time;durP1;ratioP1;P1;durP2;ratioP2;P2;SDS_P1;SDS_P2;PMS_P1;PMS_P2;Temp;Humidity;BMP_temperature;BMP_pressure;BME280_temperature;BME280_humidity;BME280_pressure;Samples;Min_cycle;Max_cycle;Signal;HPM_P1;HPM_P2
2023/12/13 00:00:23;;;;;;;;;;;;;;;7.50;100.00;99387.97;5018350;28;20385;-76
2023/12/13 00:02:48;;;;;;;;;;;;;;;7.54;100.00;99388.56;5008136;28;20462;-76
2023/12/13 00:05:13;;;;;;;;;;;;;;;7.45;100.00;99404.41;5025283;28;20722;-77
2023/12/13 00:07:39;;;;;;;;;;;;;;;7.39;100.00;99401.44;5020701;28;19936;-76
2023/12/13 00:10:04;;;;;;;;;;;;;;;7.34;100.00;99397.31;5008977;28;19925;-77
2023/12/13 00:12:29;;;;;;;;;;;;;;;7.41;100.00;99400.31;5008942;28;19917;-76
2023/12/13 00:14:55;;;;;;;;;;;;;;;7.39;100.00;99399.59;5006308;28;20024;-76
2023/12/13 00:17:20;;;;;;;;;;;;;;;7.27;100.00;99406.00;5021223;28;20034;-76
2023/12/13 00:19:47;;;;;;;;;;;;;;;7.29;100.00;99404.88;5021628;28;19925;-76
2023/12/13 00:22:12;;;;;;;;;;;;;;;7.30;100.00;99400.38;5025386;28;19917;-77
2023/12/13 00:24:37;;;;;;;;;;;;;;;7.21;100.00;99407.38;5020536;28;20312;-75
2023/12/13 00:27:02;;;;;;;;;;;;;;;7.22;100.00;99403.72;5008731;28;20355;-75
2023/12/13 00:29:28;;;;;;;;;;;;;;;7.18;100.00;99400.47;5038628;28;19936;-76
2023/12/13 00:31:53;;;;;;;;;;;;;;;7.17;100.00;99411.28;5009856;28;20294;-76
2023/12/13 00:34:18;;;;;;;;;;;;;;;6.98;100.00;99404.88;5007035;28;19960;-75
2023/12/13 00:36:43;;;;;;;;;;;;;;;7.06;100.00;99414.88;5021757;28;19925;-77
2023/12/13 00:39:08;;;;;;;;;;;;;;;7.10;100.00;99415.47;5019324;28;20403;-76
2023/12/13 00:41:34;;;;;;;;;;;;;;;6.96;100.00;99416.66;5035480;28;20357;-76
2023/12/13 00:43:59;;;;;;;;;;;;;;;6.95;100.00;99426.47;5007300;28;20023;-76
2023/12/13 00:46:25;;;;;;;;;;;;;;;6.80;100.00;99401.13;5023944;28;19925;-75
2023/12/13 00:48:50;;;;;;;;;;;;;;;6.96;100.00;99422.81;5024401;28;19925;-75
2023/12/13 00:51:19;;;;;;;;;;;;;;;6.85;100.00;99426.41;5007842;28;20021;-76
2023/12/13 00:53:45;;;;;;;;;;;;;;;6.93;100.00;99427.59;5007363;28;19949;-76
2023/12/13 00:56:10;;;;;;;;;;;;;;;6.91;100.00;99422.38;5025310;28;19921;-76
2023/12/13 00:58:35;;;;;;;;;;;;;;;6.92;100.00;99425.91;5009939;28;20379;-76
2023/12/13 01:01:00;;;;;;;;;;;;;;;6.67;100.00;99439.47;5008269;28;19921;-75
2023/12/13 01:03:26;;;;;;;;;;;;;;;6.74;100.00;99432.66;5021012;28;19956;-75
2023/12/13 01:05:51;;;;;;;;;;;;;;;6.83;100.00;99431.03;5011398;28;20351;-76
2023/12/13 01:08:17;;;;;;;;;;;;;;;6.86;100.00;99436.13;5012272;28;19932;-76
2023/12/13 01:10:42;;;;;;;;;;;;;;;6.72;100.00;99436.44;5025843;28;19961;-75
2023/12/13 01:13:07;;;;;;;;;;;;;;;6.72;100.00;99431.94;5009438;28;19939;-75
2023/12/13 01:15:32;;;;;;;;;;;;;;;6.66;100.00;99439.63;5009360;28;20010;-76
2023/12/13 01:17:58;;;;;;;;;;;;;;;6.77;100.00;99433.38;5023023;28;20003;-76
2023/12/13 01:20:23;;;;;;;;;;;;;;;6.79;100.00;99429.59;5041321;28;20278;-76
2023/12/13 01:22:48;;;;;;;;;;;;;;;6.65;100.00;99441.44;5007675;28;20040;-76
2023/12/13 01:25:13;;;;;;;;;;;;;;;6.57;100.00;99433.25;5025343;28;19974;-76
2023/12/13 01:27:38;;;;;;;;;;;;;;;6.67;100.00;99436.81;5026492;28;20007;-75
2023/12/13 01:30:04;;;;;;;;;;;;;;;6.69;100.00;99429.53;5007843;28;20100;-75
2023/12/13 01:32:29;;;;;;;;;;;;;;;6.78;100.00;99416.41;5010804;28;19928;-76
2023/12/13 01:34:54;;;;;;;;;;;;;;;6.80;100.00;99423.28;5027655;28;19962;-75
2023/12/13 01:37:20;;;;;;;;;;;;;;;6.78;100.00;99430.56;5008910;28;19921;-76
2023/12/13 01:39:45;;;;;;;;;;;;;;;6.94;100.00;99421.28;5011204;28;19921;-76
2023/12/13 01:42:10;;;;;;;;;;;;;;;6.85;100.00;99428.25;5010790;28;20320;-76
2023/12/13 01:44:35;;;;;;;;;;;;;;;6.83;100.00;99423.03;5024876;28;20439;-76
2023/12/13 01:47:02;;;;;;;;;;;;;;;6.98;100.00;99434.22;5011441;28;20467;-75
2023/12/13 01:49:27;;;;;;;;;;;;;;;6.94;100.00;99426.63;5024069;28;19936;-75
2023/12/13 01:51:52;;;;;;;;;;;;;;;6.94;100.00;99442.63;5010153;28;19921;-74
2023/12/13 01:54:17;;;;;;;;;;;;;;;6.95;100.00;99445.16;5009564;28;19921;-75
2023/12/13 01:56:43;;;;;;;;;;;;;;;6.86;100.00;99436.13;5020850;28;19960;-75
2023/12/13 01:59:08;;;;;;;;;;;;;;;6.95;100.00;99449.66;5002628;28;19928;-75
2023/12/13 02:01:33;;;;;;;;;;;;;;;6.88;100.00;99434.16;5006392;28;19921;-75
2023/12/13 02:03:59;;;;;;;;;;;;;;;6.98;100.00;99460.91;5010687;28;20039;-75
2023/12/13 02:06:24;;;;;;;;;;;;;;;6.95;100.00;99455.81;5011270;28;20095;-75
2023/12/13 02:08:49;;;;;;;;;;;;;;;6.94;100.00;99459.47;5010323;28;20269;-75
2023/12/13 02:11:14;;;;;;;;;;;;;;;6.95;100.00;99458.50;5011468;28;19921;-75
2023/12/13 02:13:39;;;;;;;;;;;;;;;6.94;100.00;99447.97;5024365;28;20479;-76
2023/12/13 02:16:05;;;;;;;;;;;;;;;7.05;100.00;99443.41;5020043;28;20318;-75
2023/12/13 02:18:30;;;;;;;;;;;;;;;7.04;100.00;99441.72;5022811;28;20633;-76
2023/12/13 02:20:55;;;;;;;;;;;;;;;6.93;100.00;99431.09;5011330;28;20343;-76
2023/12/13 02:23:20;;;;;;;;;;;;;;;6.96;100.00;99419.31;5010600;28;20252;-76
2023/12/13 02:25:55;;;;;;;;;;;;;;;7.00;100.00;99420.75;5012263;28;20413;-77
2023/12/13 02:28:20;;;;;;;;;;;;;;;6.91;100.00;99406.34;5005202;28;20343;-77
2023/12/13 02:30:46;;;;;;;;;;;;;;;6.99;100.00;99389.72;5008582;28;20043;-77
2023/12/13 02:33:11;;;;;;;;;;;;;;;6.97;100.00;99383.66;5023919;28;19928;-78
2023/12/13 02:35:36;;;;;;;;;;;;;;;6.97;100.00;99381.81;4996596;28;19925;-77
2023/12/13 02:38:01;;;;;;;;;;;;;;;6.94;100.00;99373.25;5007723;28;19921;-78
2023/12/13 02:40:27;;;;;;;;;;;;;;;6.97;100.00;99376.50;5025804;28;20004;-78
2023/12/13 02:42:52;;;;;;;;;;;;;;;6.98;100.00;99370.19;5023275;28;19928;-78
2023/12/13 02:45:17;;;;;;;;;;;;;;;6.98;100.00;99369.34;5010901;28;20265;-78
2023/12/13 02:47:43;;;;;;;;;;;;;;;6.97;100.00;99357.81;5006213;28;19925;-78
2023/12/13 02:50:09;;;;;;;;;;;;;;;6.95;100.00;99361.59;5023416;28;20008;-77
2023/12/13 02:52:35;;;;;;;;;;;;;;;7.01;100.00;99350.41;5007776;28;19925;-79
2023/12/13 02:55:00;;;;;;;;;;;;;;;7.02;100.00;99346.72;5022326;28;19921;-79
2023/12/13 02:57:25;;;;;;;;;;;;;;;7.02;100.00;99344.91;5036311;28;19960;-78
2023/12/13 02:59:50;;;;;;;;;;;;;;;7.02;100.00;99349.41;5006421;28;19952;-78
2023/12/13 03:02:15;;;;;;;;;;;;;;;6.90;100.00;99345.97;5019795;28;19925;-79
2023/12/13 03:04:41;;;;;;;;;;;;;;;6.93;100.00;99345.72;5009093;28;19924;-78
2023/12/13 03:07:06;;;;;;;;;;;;;;;6.88;100.00;99340.78;5031836;28;19964;-78
2023/12/13 03:09:31;;;;;;;;;;;;;;;6.94;100.00;99335.91;5015453;28;20454;-79
2023/12/13 03:11:57;;;;;;;;;;;;;;;6.92;100.00;99328.00;5013734;28;20273;-79
2023/12/13 03:14:22;;;;;;;;;;;;;;;6.93;100.00;99326.19;5025911;28;20395;-78
2023/12/13 03:16:47;;;;;;;;;;;;;;;6.94;100.00;99319.88;5011157;28;19931;-78
2023/12/13 03:19:12;;;;;;;;;;;;;;;6.95;100.00;99313.56;5025428;28;19917;-79
2023/12/13 03:21:37;;;;;;;;;;;;;;;6.96;100.00;99318.75;5023516;28;19921;-78
2023/12/13 03:24:03;;;;;;;;;;;;;;;6.93;100.00;99321.69;5024412;28;19925;-78
2023/12/13 03:26:28;;;;;;;;;;;;;;;7.02;100.00;99304.03;5007197;28;19965;-79
2023/12/13 03:28:53;;;;;;;;;;;;;;;6.95;100.00;99309.06;4998377;28;19941;-79
2023/12/13 03:31:18;;;;;;;;;;;;;;;6.96;100.00;99315.25;4995627;28;19956;-78
2023/12/13 03:33:43;;;;;;;;;;;;;;;7.02;100.00;99307.56;5007879;28;19997;-78
2023/12/13 03:36:16;;;;;;;;;;;;;;;7.09;100.00;99294.50;5024911;28;19925;-78
2023/12/13 03:38:42;;;;;;;;;;;;;;;7.09;100.00;99304.34;5023392;28;19953;-78
2023/12/13 03:41:07;;;;;;;;;;;;;;;7.10;100.00;99301.53;5008401;28;19921;-79
2023/12/13 03:43:32;;;;;;;;;;;;;;;6.99;100.00;99302.50;5005523;28;19960;-78
2023/12/13 03:45:58;;;;;;;;;;;;;;;7.00;100.00;99303.34;5022678;28;20333;-79
2023/12/13 03:48:23;;;;;;;;;;;;;;;6.95;100.00;99300.22;5028243;28;19921;-78
2023/12/13 03:50:48;;;;;;;;;;;;;;;6.97;100.00;99291.09;5007700;28;19917;-78
2023/12/13 03:53:13;;;;;;;;;;;;;;;6.91;100.00;99291.63;5005825;28;20287;-78
2023/12/13 03:55:39;;;;;;;;;;;;;;;6.90;100.00;99287.28;5023865;28;20367;-78
2023/12/13 03:58:04;;;;;;;;;;;;;;;6.93;100.00;99276.34;5023650;28;20026;-78
2023/12/13 04:00:29;;;;;;;;;;;;;;;6.94;100.00;99279.84;5021752;28;19921;-78
2023/12/13 04:02:54;;;;;;;;;;;;;;;6.93;100.00;99272.84;5005855;28;19925;-78
2023/12/13 04:05:20;;;;;;;;;;;;;;;6.96;100.00;99273.41;5012145;28;19921;-78
2023/12/13 04:07:45;;;;;;;;;;;;;;;7.02;100.00;99261.34;5013967;28;19975;-78
2023/12/13 04:10:10;;;;;;;;;;;;;;;6.96;100.00;99268.06;5006728;28;20262;-77
2023/12/13 04:12:35;;;;;;;;;;;;;;;6.98;100.00;99266.09;5021234;28;20395;-78
2023/12/13 04:15:01;;;;;;;;;;;;;;;7.03;100.00;99263.03;5023414;28;20256;-78
2023/12/13 04:17:26;;;;;;;;;;;;;;;7.06;100.00;99257.41;5023706;28;19980;-77
2023/12/13 04:19:51;;;;;;;;;;;;;;;7.07;100.00;99264.44;5010697;28;19925;-78
2023/12/13 04:22:16;;;;;;;;;;;;;;;7.11;100.00;99251.69;4996981;28;19981;-78
2023/12/13 04:24:41;;;;;;;;;;;;;;;7.12;100.00;99254.22;5004809;28;20257;-78
2023/12/13 04:27:08;;;;;;;;;;;;;;;7.10;100.00;99252.66;5017670;28;23312;-78
2023/12/13 04:29:33;;;;;;;;;;;;;;;7.06;100.00;99254.75;5020981;28;19959;-78
2023/12/13 04:31:58;;;;;;;;;;;;;;;7.12;100.00;99266.72;5022249;28;19937;-78
2023/12/13 04:34:24;;;;;;;;;;;;;;;7.12;100.00;99264.88;5006395;28;19925;-78
2023/12/13 04:36:49;;;;;;;;;;;;;;;7.03;100.00;99263.88;5006320;28;19975;-78
2023/12/13 04:39:14;;;;;;;;;;;;;;;7.09;100.00;99267.81;5009905;28;20203;-78
2023/12/13 04:41:40;;;;;;;;;;;;;;;7.02;100.00;99261.34;5027467;28;19987;-78
2023/12/13 04:44:07;;;;;;;;;;;;;;;7.01;100.00;99268.50;5013158;28;19921;-78
2023/12/13 04:46:32;;;;;;;;;;;;;;;6.99;100.00;99262.47;5027836;28;19925;-78
2023/12/13 04:48:58;;;;;;;;;;;;;;;7.04;100.00;99267.38;5025725;28;19948;-78
2023/12/13 04:51:23;;;;;;;;;;;;;;;7.02;100.00;99267.53;5029665;28;19953;-78
2023/12/13 04:53:48;;;;;;;;;;;;;;;7.06;100.00;99262.75;5015382;28;20312;-78
2023/12/13 04:56:13;;;;;;;;;;;;;;;7.04;100.00;99256.69;5025837;28;19920;-77
2023/12/13 04:58:39;;;;;;;;;;;;;;;7.10;100.00;99252.66;5048621;28;19917;-78
2023/12/13 05:01:04;;;;;;;;;;;;;;;7.11;100.00;99254.38;5026360;28;19948;-78
2023/12/13 05:03:30;;;;;;;;;;;;;;;7.04;100.00;99254.03;5009698;28;20033;-77
2023/12/13 05:05:55;;;;;;;;;;;;;;;7.11;100.00;99252.53;5029324;28;20450;-77
2023/12/13 05:08:20;;;;;;;;;;;;;;;7.04;100.00;99252.22;5010672;28;19967;-78
2023/12/13 05:10:45;;;;;;;;;;;;;;;7.08;100.00;99247.44;5008789;28;19971;-78
2023/12/13 05:13:10;;;;;;;;;;;;;;;7.07;100.00;99250.28;5019471;28;20256;-77
2023/12/13 05:15:36;;;;;;;;;;;;;;;7.17;100.00;99251.97;5025073;28;19932;-77
2023/12/13 05:18:02;;;;;;;;;;;;;;;7.16;100.00;99246.75;5009420;28;19925;-77
2023/12/13 05:20:27;;;;;;;;;;;;;;;7.11;100.00;99254.38;5008213;28;20252;-77
2023/12/13 05:22:52;;;;;;;;;;;;;;;7.13;100.00;99234.53;5002251;28;20008;-78
2023/12/13 05:25:17;;;;;;;;;;;;;;;7.14;100.00;99236.25;5010127;28;20211;-77
2023/12/13 05:27:44;;;;;;;;;;;;;;;7.16;100.00;99230.75;5009885;28;20303;-78
2023/12/13 05:30:10;;;;;;;;;;;;;;;7.17;100.00;99238.63;5006770;28;20350;-77
2023/12/13 05:32:35;;;;;;;;;;;;;;;7.25;100.00;99234.44;5039967;28;19925;-77
2023/12/13 05:35:00;;;;;;;;;;;;;;;7.28;100.00;99235.00;5006745;28;19928;-78
2023/12/13 05:37:25;;;;;;;;;;;;;;;7.22;100.00;99240.88;5023581;28;19928;-77
2023/12/13 05:39:51;;;;;;;;;;;;;;;7.32;100.00;99243.56;5007235;28;19965;-77
2023/12/13 05:42:16;;;;;;;;;;;;;;;7.29;100.00;99243.84;5005266;28;20346;-77
2023/12/13 05:44:41;;;;;;;;;;;;;;;7.28;100.00;99240.34;5021315;28;20649;-77
2023/12/13 05:47:06;;;;;;;;;;;;;;;7.29;100.00;99241.16;5039377;28;20192;-77
2023/12/13 05:49:31;;;;;;;;;;;;;;;7.24;100.00;99241.59;5007586;28;19964;-77
2023/12/13 05:51:57;;;;;;;;;;;;;;;7.29;100.00;99250.03;5003858;28;20468;-77
2023/12/13 05:54:22;;;;;;;;;;;;;;;7.30;100.00;99248.19;5022921;28;19943;-77
2023/12/13 05:56:47;;;;;;;;;;;;;;;7.30;100.00;99249.06;5007291;28;19917;-77
2023/12/13 05:59:12;;;;;;;;;;;;;;;7.33;100.00;99248.78;5010214;28;20251;-77
2023/12/13 06:01:37;;;;;;;;;;;;;;;7.29;100.00;99251.84;5011851;28;19921;-77
2023/12/13 06:04:03;;;;;;;;;;;;;;;7.20;100.00;99257.06;5023324;28;19921;-77
2023/12/13 06:06:28;;;;;;;;;;;;;;;7.28;100.00;99259.03;5014314;28;20372;-77
2023/12/13 06:08:53;;;;;;;;;;;;;;;7.16;100.00;99265.44;5010899;28;19925;-77
2023/12/13 06:11:18;;;;;;;;;;;;;;;7.33;100.00;99255.94;5009635;28;19928;-77
2023/12/13 06:13:43;;;;;;;;;;;;;;;7.20;100.00;99266.88;5012155;28;19978;-77
2023/12/13 06:16:12;;;;;;;;;;;;;;;7.19;100.00;99265.19;5030862;28;20580;-77
2023/12/13 06:18:37;;;;;;;;;;;;;;;7.27;100.00;99261.84;4999162;28;19970;-78
2023/12/13 06:21:02;;;;;;;;;;;;;;;7.34;100.00;99262.97;5016556;28;19925;-78
2023/12/13 06:23:27;;;;;;;;;;;;;;;7.31;100.00;99272.09;5013638;28;20431;-77
2023/12/13 06:25:53;;;;;;;;;;;;;;;7.30;100.00;99282.91;5013258;28;20018;-77
2023/12/13 06:28:18;;;;;;;;;;;;;;;7.32;100.00;99284.47;4998110;28;20807;-77
2023/12/13 06:30:43;;;;;;;;;;;;;;;7.33;100.00;99275.50;5027636;28;20738;-77
2023/12/13 06:33:08;;;;;;;;;;;;;;;7.28;100.00;99284.91;5030701;28;20472;-77
2023/12/13 06:35:33;;;;;;;;;;;;;;;7.30;100.00;99289.09;5028642;28;19921;-77
2023/12/13 06:37:59;;;;;;;;;;;;;;;7.24;100.00;99286.16;5025049;28;19921;-77
2023/12/13 06:40:24;;;;;;;;;;;;;;;7.27;100.00;99284.03;4996842;28;19921;-77
2023/12/13 06:42:49;;;;;;;;;;;;;;;7.28;100.00;99284.91;5016805;28;19920;-77
2023/12/13 06:45:15;;;;;;;;;;;;;;;7.25;100.00;99282.50;5015488;28;19932;-76
2023/12/13 06:47:40;;;;;;;;;;;;;;;7.23;100.00;99287.97;5010131;28;19925;-77
2023/12/13 06:50:05;;;;;;;;;;;;;;;7.23;100.00;99276.44;5029967;28;20059;-76
2023/12/13 06:52:30;;;;;;;;;;;;;;;7.26;100.00;99285.03;5011369;28;19991;-77
2023/12/13 06:54:56;;;;;;;;;;;;;;;7.24;100.00;99286.16;5011931;28;19917;-77
2023/12/13 06:57:21;;;;;;;;;;;;;;;7.26;100.00;99270.84;5026299;28;20039;-76
2023/12/13 06:59:47;;;;;;;;;;;;;;;7.26;100.00;99289.53;4999454;28;20016;-77
2023/12/13 07:02:12;;;;;;;;;;;;;;;7.20;100.00;99285.56;5013829;28;20296;-77
2023/12/13 07:04:37;;;;;;;;;;;;;;;7.37;100.00;99281.38;5010731;28;19944;-77
2023/12/13 07:07:03;;;;;;;;;;;;;;;7.30;100.00;99288.25;5028624;28;20238;-77
2023/12/13 07:09:29;;;;;;;;;;;;;;;7.20;100.00;99291.75;5016587;28;19971;-77
2023/12/13 07:11:54;;;;;;;;;;;;;;;7.29;100.00;99283.88;4996602;28;19921;-77
2023/12/13 07:14:19;;;;;;;;;;;;;;;7.28;100.00;99284.91;5030312;28;19921;-78
2023/12/13 07:16:44;;;;;;;;;;;;;;;7.34;100.00;99284.31;5010708;28;19921;-78
2023/12/13 07:19:10;;;;;;;;;;;;;;;7.32;100.00;99283.63;5016115;28;19976;-77
2023/12/13 07:21:35;;;;;;;;;;;;;;;7.21;100.00;99289.91;5010818;28;20253;-77
2023/12/13 07:24:00;;;;;;;;;;;;;;;7.26;100.00;99287.69;5029611;28;19921;-77
2023/12/13 07:26:25;;;;;;;;;;;;;;;7.21;100.00;99287.25;5011091;28;20396;-78
2023/12/13 07:28:52;;;;;;;;;;;;;;;7.21;100.00;99287.25;5026997;28;21256;-77
2023/12/13 07:31:18;;;;;;;;;;;;;;;7.31;100.00;99284.59;4998849;28;20317;-78
2023/12/13 07:33:43;;;;;;;;;;;;;;;7.11;100.00;99260.53;5028114;28;19921;-78
2023/12/13 07:36:09;;;;;;;;;;;;;;;7.25;100.00;99290.50;5010652;28;19920;-78
2023/12/13 07:38:34;;;;;;;;;;;;;;;7.27;100.00;99289.38;5024511;28;19953;-78
2023/12/13 07:40:59;;;;;;;;;;;;;;;7.16;100.00;99295.66;5030210;28;19920;-78
2023/12/13 07:43:26;;;;;;;;;;;;;;;7.22;100.00;99288.09;5006920;28;19961;-80
2023/12/13 07:45:52;;;;;;;;;;;;;;;7.17;100.00;99293.84;4997073;28;19998;-78
2023/12/13 07:48:26;;;;;;;;;;;;;;;7.18;100.00;99292.84;5004708;28;19968;-78
2023/12/13 07:50:51;;;;;;;;;;;;;;;7.17;100.00;99288.50;5022575;28;20156;-78
2023/12/13 07:53:16;;;;;;;;;;;;;;;7.22;100.00;99286.25;5011469;28;19980;-79
2023/12/13 07:55:42;;;;;;;;;;;;;;;7.20;100.00;99290.88;5013583;28;19921;-78
2023/12/13 07:58:07;;;;;;;;;;;;;;;7.31;100.00;99284.59;5007422;28;19959;-78
2023/12/13 08:00:32;;;;;;;;;;;;;;;7.22;100.00;99283.59;5040521;28;19955;-78
2023/12/13 08:02:57;;;;;;;;;;;;;;;7.21;100.00;99284.56;5044658;28;19932;-79
2023/12/13 08:05:23;;;;;;;;;;;;;;;7.23;100.00;99279.13;5008014;28;19929;-79
2023/12/13 08:07:48;;;;;;;;;;;;;;;7.25;100.00;99287.84;5003788;28;19925;-78
2023/12/13 08:10:14;;;;;;;;;;;;;;;7.27;100.00;99285.88;5027020;28;19928;-79
2023/12/13 08:12:40;;;;;;;;;;;;;;;7.29;100.00;99286.56;5022012;28;20877;-79
2023/12/13 08:15:06;;;;;;;;;;;;;;;7.19;100.00;99281.19;5021869;28;20467;-78
2023/12/13 08:17:33;;;;;;;;;;;;;;;7.28;100.00;99287.56;5011067;28;19928;-79
2023/12/13 08:19:59;;;;;;;;;;;;;;;7.33;100.00;99290.66;5007815;28;20040;-80
2023/12/13 08:22:24;;;;;;;;;;;;;;;7.26;100.00;99298.38;5024218;28;19921;-79
2023/12/13 08:24:49;;;;;;;;;;;;;;;7.34;100.00;99303.88;5025246;28;19967;-80
2023/12/13 08:27:14;;;;;;;;;;;;;;;7.30;100.00;99298.94;5015634;28;19921;-79
2023/12/13 08:29:40;;;;;;;;;;;;;;;7.29;100.00;99295.44;4996063;28;19955;-79
2023/12/13 08:32:06;;;;;;;;;;;;;;;7.27;100.00;99293.88;5017115;28;19982;-80
2023/12/13 08:34:31;;;;;;;;;;;;;;;7.26;100.00;99301.03;5016682;28;19925;-80
2023/12/13 08:36:56;;;;;;;;;;;;;;;7.31;100.00;99300.63;5014027;28;20402;-81
2023/12/13 08:39:21;;;;;;;;;;;;;;;7.33;100.00;99302.19;5018706;28;20021;-80
2023/12/13 08:41:47;;;;;;;;;;;;;;;7.27;100.00;99304.56;5016619;28;20020;-81
2023/12/13 08:44:12;;;;;;;;;;;;;;;7.32;100.00;99303.16;5012927;28;19970;-81
2023/12/13 08:46:38;;;;;;;;;;;;;;;7.40;100.00;99307.81;5032557;28;20362;-81
2023/12/13 08:49:04;;;;;;;;;;;;;;;7.29;100.00;99313.25;5017782;28;20280;-81
2023/12/13 08:51:29;;;;;;;;;;;;;;;7.27;100.00;99309.91;5033592;28;19917;-81
2023/12/13 08:53:55;;;;;;;;;;;;;;;7.33;100.00;99312.88;5018940;28;19928;-81
2023/12/13 08:56:20;;;;;;;;;;;;;;;7.33;100.00;99318.22;5032571;28;19943;-80
2023/12/13 08:58:45;;;;;;;;;;;;;;;7.24;100.00;99313.66;5017623;28;19932;-81
2023/12/13 09:01:11;;;;;;;;;;;;;;;7.23;100.00;99314.66;5014983;28;19924;-81
2023/12/13 09:03:36;;;;;;;;;;;;;;;7.25;100.00;99317.19;5015989;28;19968;-81
2023/12/13 09:06:01;;;;;;;;;;;;;;;7.29;100.00;99314.13;5000590;28;19921;-80
2023/12/13 09:08:26;;;;;;;;;;;;;;;7.28;100.00;99314.25;5014994;28;19964;-80
2023/12/13 09:10:51;;;;;;;;;;;;;;;7.25;100.00;99311.88;5032636;28;20067;-80
2023/12/13 09:13:17;;;;;;;;;;;;;;;7.25;100.00;99312.69;5019447;28;19955;-80
2023/12/13 09:15:42;;;;;;;;;;;;;;;7.27;100.00;99313.41;5014837;28;19921;-80
2023/12/13 09:18:08;;;;;;;;;;;;;;;7.27;100.00;99318.75;5001207;28;19952;-80
2023/12/13 09:20:33;;;;;;;;;;;;;;;7.30;100.00;99317.63;5014530;28;19921;-80
2023/12/13 09:22:58;;;;;;;;;;;;;;;7.26;100.00;99319.72;5013107;28;20016;-81
2023/12/13 09:25:25;;;;;;;;;;;;;;;7.15;100.00;99298.50;5019221;28;19925;-80
2023/12/13 09:27:50;;;;;;;;;;;;;;;7.31;100.00;99308.63;5016057;28;20006;-80
2023/12/13 09:30:15;;;;;;;;;;;;;;;7.32;100.00;99319.19;5019337;28;20055;-81
2023/12/13 09:32:41;;;;;;;;;;;;;;;7.33;100.00;99320.88;5033489;28;20662;-81
2023/12/13 09:35:06;;;;;;;;;;;;;;;7.39;100.00;99311.47;5001115;28;20426;-80
2023/12/13 09:37:32;;;;;;;;;;;;;;;7.44;100.00;99311.91;5029197;28;19928;-80
2023/12/13 09:39:57;;;;;;;;;;;;;;;7.48;100.00;99313.31;5001289;28;19921;-80
2023/12/13 09:42:24;;;;;;;;;;;;;;;7.54;100.00;99309.25;5015744;28;19995;-81
2023/12/13 09:44:49;;;;;;;;;;;;;;;7.61;100.00;99309.53;5029081;28;19921;-81
2023/12/13 09:47:15;;;;;;;;;;;;;;;7.65;100.00;99311.81;5031382;28;19987;-81
2023/12/13 09:49:40;;;;;;;;;;;;;;;7.74;100.00;99319.97;5019692;28;20328;-81
2023/12/13 09:52:07;;;;;;;;;;;;;;;7.75;100.00;99325.19;5013776;28;20125;-81
2023/12/13 09:54:32;;;;;;;;;;;;;;;7.64;100.00;99314.59;5012441;28;20237;-81
2023/12/13 09:56:57;;;;;;;;;;;;;;;7.79;100.00;99331.94;5012193;28;19921;-80
2023/12/13 09:59:23;;;;;;;;;;;;;;;7.82;100.00;99330.81;5010922;28;19921;-80
2023/12/13 10:01:48;;;;;;;;;;;;;;;7.84;100.00;99333.34;5013709;28;20032;-80
2023/12/13 10:04:14;;;;;;;;;;;;;;;7.90;100.00;99336.31;5013981;28;19925;-81
2023/12/13 10:06:39;;;;;;;;;;;;;;;7.91;100.00;99343.34;4999796;28;19925;-81
2023/12/13 10:09:06;;;;;;;;;;;;;;;7.91;100.00;99345.16;5013101;28;20191;-81
2023/12/13 10:11:31;;;;;;;;;;;;;;;7.92;100.00;99347.72;5032105;28;19968;-81
2023/12/13 10:13:57;;;;;;;;;;;;;;;8.00;100.00;99351.50;4997271;28;20408;-80
2023/12/13 10:16:22;;;;;;;;;;;;;;;8.04;100.00;99356.44;5013761;28;20015;-81
2023/12/13 10:18:47;;;;;;;;;;;;;;;8.06;100.00;99361.63;5026252;28;21801;-81
2023/12/13 10:21:13;;;;;;;;;;;;;;;8.15;100.00;99360.81;5013728;28;19920;-81
2023/12/13 10:23:41;;;;;;;;;;;;;;;8.19;100.00;99374.72;5046519;28;20294;-80
2023/12/13 10:26:08;;;;;;;;;;;;;;;8.24;100.00;99373.31;5016623;28;19987;-81
2023/12/13 10:28:34;;;;;;;;;;;;;;;8.26;100.00;99382.03;5029670;28;20385;-81
2023/12/13 10:31:00;;;;;;;;;;;;;;;8.32;100.00;99393.16;5031140;28;19921;-81
2023/12/13 10:33:25;;;;;;;;;;;;;;;8.41;100.00;99389.66;5021637;28;20588;-81
2023/12/13 10:35:50;;;;;;;;;;;;;;;8.55;100.00;99399.13;4999764;28;19932;-80
2023/12/13 10:38:16;;;;;;;;;;;;;;;8.63;100.00;99399.22;5012733;28;19967;-80
2023/12/13 10:40:41;;;;;;;;;;;;;;;8.70;100.00;99402.19;5014983;28;19992;-80
2023/12/13 10:43:08;;;;;;;;;;;;;;;8.93;100.00;99402.72;5017312;28;19924;-80
2023/12/13 10:45:33;;;;;;;;;;;;;;;8.89;100.00;99421.88;5000138;28;20370;-80
2023/12/13 10:47:59;;;;;;;;;;;;;;;8.80;100.00;99431.63;5031227;28;20482;-79
2023/12/13 10:50:25;;;;;;;;;;;;;;;8.80;100.00;99442.31;5015150;28;19921;-80
2023/12/13 10:52:50;;;;;;;;;;;;;;;8.85;100.00;99448.09;5013007;28;19929;-78
2023/12/13 10:55:15;;;;;;;;;;;;;;;8.82;100.00;99467.13;5013064;28;19972;-79
2023/12/13 10:57:40;;;;;;;;;;;;;;;8.77;100.00;99474.72;5025846;28;19927;-78
2023/12/13 11:00:06;;;;;;;;;;;;;;;8.77;100.00;99478.22;5010593;28;19925;-79
2023/12/13 11:02:33;;;;;;;;;;;;;;;8.77;100.00;99480.06;5028441;28;19957;-79
2023/12/13 11:04:58;;;;;;;;;;;;;;;8.78;100.00;99487.13;5013357;28;20011;-78
2023/12/13 11:07:24;;;;;;;;;;;;;;;8.66;100.00;99505.16;5008301;28;20426;-79
2023/12/13 11:09:53;;;;;;;;;;;;;;;8.70;100.00;99512.75;5014756;28;20219;-78
2023/12/13 11:12:19;;;;;;;;;;;;;;;8.71;100.00;99518.97;5029426;28;19928;-78
2023/12/13 11:14:48;;;;;;;;;;;;;;;8.68;100.00;99533.44;5032524;28;19920;-78
2023/12/13 11:17:13;;;;;;;;;;;;;;;8.66;100.00;99532.72;5010291;28;20542;-77
2023/12/13 11:19:38;;;;;;;;;;;;;;;8.75;100.00;99540.91;5007779;28;19957;-77
2023/12/13 11:22:06;;;;;;;;;;;;;;;8.72;100.00;99544.72;5028300;28;20020;-78
2023/12/13 11:24:36;;;;;;;;;;;;;;;8.70;100.00;99554.72;5027554;28;19932;-78
2023/12/13 11:27:07;;;;;;;;;;;;;;;8.73;100.00;99551.78;5014001;28;19925;-79
2023/12/13 11:29:33;;;;;;;;;;;;;;;8.87;100.00;99555.88;4993086;28;19965;-77
2023/12/13 11:31:59;;;;;;;;;;;;;;;8.80;100.00;99546.69;5012757;28;20400;-78
2023/12/13 11:34:33;;;;;;;;;;;;;;;8.81;100.00;99569.81;4997510;28;19933;-78
2023/12/13 11:37:00;;;;;;;;;;;;;;;8.69;100.00;99571.75;5000485;28;19921;-76
2023/12/13 11:39:25;;;;;;;;;;;;;;;8.65;100.00;99570.34;4997157;28;19921;-77
2023/12/13 11:41:50;;;;;;;;;;;;;;;8.64;100.00;99571.31;4998837;28;19990;-76
2023/12/13 11:44:16;;;;;;;;;;;;;;;8.63;100.00;99575.00;5013325;28;19920;-77
2023/12/13 11:46:41;;;;;;;;;;;;;;;8.65;100.00;99573.03;5027116;28;20408;-77
2023/12/13 11:49:07;;;;;;;;;;;;;;;8.54;100.00;99572.16;5012685;28;19924;-77
2023/12/13 11:51:32;;;;;;;;;;;;;;;8.53;100.00;99585.66;5014044;28;20023;-77
2023/12/13 11:53:57;;;;;;;;;;;;;;;8.56;100.00;99580.06;5012542;28;20323;-76
2023/12/13 11:56:22;;;;;;;;;;;;;;;8.68;100.00;99572.75;4996489;28;20219;-76
2023/12/13 11:58:49;;;;;;;;;;;;;;;8.66;100.00;99580.91;5011621;28;19921;-77
2023/12/13 12:01:15;;;;;;;;;;;;;;;8.78;100.00;99570.91;5025466;28;19932;-76
2023/12/13 12:03:41;;;;;;;;;;;;;;;8.82;100.00;99579.53;5024721;28;20410;-77
2023/12/13 12:06:15;;;;;;;;;;;;;;;8.91;100.00;99567.97;5013902;28;20008;-77
2023/12/13 12:08:40;;;;;;;;;;;;;;;8.93;100.00;99582.06;5012544;28;19952;-77
2023/12/13 12:11:06;;;;;;;;;;;;;;;8.99;100.00;99580.66;5027701;28;20099;-76
2023/12/13 12:13:31;;;;;;;;;;;;;;;9.12;100.00;99593.78;5014072;28;19921;-76
2023/12/13 12:15:57;;;;;;;;;;;;;;;8.94;100.00;99607.00;5012010;28;20409;-76
2023/12/13 12:18:22;;;;;;;;;;;;;;;8.84;100.00;99623.88;5003086;28;19920;-78
2023/12/13 12:20:47;;;;;;;;;;;;;;;8.80;100.00;99635.84;5012730;28;19991;-76
2023/12/13 12:23:12;;;;;;;;;;;;;;;8.85;100.00;99638.13;5015792;28;20019;-76
2023/12/13 12:25:42;;;;;;;;;;;;;;;8.80;100.00;99637.69;5016028;28;19960;-76
2023/12/13 12:28:10;;;;;;;;;;;;;;;8.87;100.00;99636.16;5010960;28;21042;-76
2023/12/13 12:30:35;;;;;;;;;;;;;;;9.03;100.00;99637.44;5001042;28;20295;-76
2023/12/13 12:33:00;;;;;;;;;;;;;;;9.21;100.00;99640.28;5015173;28;19921;-76
2023/12/13 12:35:25;;;;;;;;;;;;;;;9.40;100.00;99648.31;5007758;28;19998;-76
2023/12/13 12:37:50;;;;;;;;;;;;;;;9.46;100.00;99660.28;5010654;28;20348;-76